sensor_id;sensor_type;location;lat;lon;timestamp;temperature;humidity
37412;DHT22;23278;52.110;6.050;2023-11-18T00:00:50;5.30;99.90
37412;DHT22;23278;52.110;6.050;2023-11-18T00:03:16;5.50;99.90
37412;DHT22;23278;52.110;6.050;2023-11-18T00:05:42;5.60;99.90
37412;DHT22;23278;52.110;6.050;2023-11-18T00:08:08;5.70;99.90
37412;DHT22;23278;52.110;6.050;2023-11-18T00:10:34;5.80;99.90
37412;DHT22;23278;52.110;6.050;2023-11-18T00:13:00;5.80;99.90
37412;DHT22;23278;52.110;6.050;2023-11-18T00:15:27;5.90;99.90
37412;DHT22;23278;52.110;6.050;2023-11-18T00:17:53;6.00;99.90
37412;DHT22;23278;52.110;6.050;2023-11-18T00:20:19;6.00;99.90
37412;DHT22;23278;52.110;6.050;2023-11-18T00:22:46;6.00;99.90
37412;DHT22;23278;52.110;6.050;2023-11-18T00:25:11;6.00;99.90
37412;DHT22;23278;52.110;6.050;2023-11-18T00:27:40;6.00;99.90
37412;DHT22;23278;52.110;6.050;2023-11-18T00:30:06;6.10;99.90
37412;DHT22;23278;52.110;6.050;2023-11-18T00:32:37;6.20;99.90
37412;DHT22;23278;52.110;6.050;2023-11-18T00:35:04;6.20;99.90
37412;DHT22;23278;52.110;6.050;2023-11-18T00:37:30;6.30;99.90
37412;DHT22;23278;52.110;6.050;2023-11-18T00:39:56;6.40;99.90
37412;DHT22;23278;52.110;6.050;2023-11-18T00:42:22;6.40;99.90
37412;DHT22;23278;52.110;6.050;2023-11-18T00:44:48;6.50;99.90
37412;DHT22;23278;52.110;6.050;2023-11-18T00:47:15;6.50;99.90
37412;DHT22;23278;52.110;6.050;2023-11-18T00:49:41;6.60;99.90
37412;DHT22;23278;52.110;6.050;2023-11-18T00:52:07;6.60;99.90
37412;DHT22;23278;52.110;6.050;2023-11-18T00:54:34;6.60;99.90
37412;DHT22;23278;52.110;6.050;2023-11-18T00:57:00;6.60;99.90
37412;DHT22;23278;52.110;6.050;2023-11-18T00:59:26;6.60;99.90
37412;DHT22;23278;52.110;6.050;2023-11-18T01:01:52;6.70;99.90
37412;DHT22;23278;52.110;6.050;2023-11-18T01:04:18;6.70;99.90
37412;DHT22;23278;52.110;6.050;2023-11-18T01:06:45;6.80;99.90
37412;DHT22;23278;52.110;6.050;2023-11-18T01:09:11;6.80;99.90
37412;DHT22;23278;52.110;6.050;2023-11-18T01:11:37;6.90;99.90
37412;DHT22;23278;52.110;6.050;2023-11-18T01:14:03;6.90;99.90
37412;DHT22;23278;52.110;6.050;2023-11-18T01:16:29;7.00;99.90
37412;DHT22;23278;52.110;6.050;2023-11-18T01:18:56;7.00;99.90
37412;DHT22;23278;52.110;6.050;2023-11-18T01:21:22;6.90;99.90
37412;DHT22;23278;52.110;6.050;2023-11-18T01:23:48;6.90;99.90
37412;DHT22;23278;52.110;6.050;2023-11-18T01:26:15;6.90;99.90
37412;DHT22;23278;52.110;6.050;2023-11-18T01:28:41;6.80;99.90
37412;DHT22;23278;52.110;6.050;2023-11-18T01:31:09;6.70;99.90
37412;DHT22;23278;52.110;6.050;2023-11-18T01:33:37;6.50;99.90
37412;DHT22;23278;52.110;6.050;2023-11-18T01:36:09;6.40;99.90
37412;DHT22;23278;52.110;6.050;2023-11-18T01:38:36;6.30;99.90
37412;DHT22;23278;52.110;6.050;2023-11-18T01:41:04;6.30;99.90
37412;DHT22;23278;52.110;6.050;2023-11-18T01:43:31;6.30;99.90
37412;DHT22;23278;52.110;6.050;2023-11-18T01:46:05;6.30;99.90
37412;DHT22;23278;52.110;6.050;2023-11-18T01:48:33;6.40;99.90
37412;DHT22;23278;52.110;6.050;2023-11-18T01:50:59;6.50;99.90
37412;DHT22;23278;52.110;6.050;2023-11-18T01:53:28;6.50;99.90
37412;DHT22;23278;52.110;6.050;2023-11-18T01:55:55;6.60;99.90
37412;DHT22;23278;52.110;6.050;2023-11-18T01:58:20;6.70;99.90
37412;DHT22;23278;52.110;6.050;2023-11-18T02:00:50;6.70;99.90
37412;DHT22;23278;52.110;6.050;2023-11-18T02:03:17;6.80;99.90
37412;DHT22;23278;52.110;6.050;2023-11-18T02:05:43;6.80;99.90
37412;DHT22;23278;52.110;6.050;2023-11-18T02:08:10;6.90;99.90
37412;DHT22;23278;52.110;6.050;2023-11-18T02:10:55;6.90;99.90
37412;DHT22;23278;52.110;6.050;2023-11-18T02:13:24;6.90;99.90
37412;DHT22;23278;52.110;6.050;2023-11-18T02:15:54;6.90;99.90
37412;DHT22;23278;52.110;6.050;2023-11-18T02:18:27;7.00;99.90
37412;DHT22;23278;52.110;6.050;2023-11-18T02:20:55;7.00;99.90
37412;DHT22;23278;52.110;6.050;2023-11-18T02:23:27;7.00;99.90
37412;DHT22;23278;52.110;6.050;2023-11-18T02:25:54;7.00;99.90
37412;DHT22;23278;52.110;6.050;2023-11-18T02:28:21;7.00;99.90
37412;DHT22;23278;52.110;6.050;2023-11-18T02:30:50;7.00;99.90
37412;DHT22;23278;52.110;6.050;2023-11-18T02:33:21;7.00;99.90
37412;DHT22;23278;52.110;6.050;2023-11-18T02:35:51;7.00;99.90
37412;DHT22;23278;52.110;6.050;2023-11-18T02:38:22;7.00;99.90
37412;DHT22;23278;52.110;6.050;2023-11-18T02:40:56;6.90;99.90
37412;DHT22;23278;52.110;6.050;2023-11-18T02:43:25;7.00;99.90
37412;DHT22;23278;52.110;6.050;2023-11-18T02:45:55;7.00;99.90
37412;DHT22;23278;52.110;6.050;2023-11-18T02:48:22;7.00;99.90
37412;DHT22;23278;52.110;6.050;2023-11-18T02:50:49;7.00;99.90
37412;DHT22;23278;52.110;6.050;2023-11-18T02:53:15;7.00;99.90
37412;DHT22;23278;52.110;6.050;2023-11-18T02:55:41;6.90;99.90
37412;DHT22;23278;52.110;6.050;2023-11-18T02:58:07;7.00;99.90
37412;DHT22;23278;52.110;6.050;2023-11-18T03:00:34;6.90;99.90
37412;DHT22;23278;52.110;6.050;2023-11-18T03:02:59;7.00;99.90
37412;DHT22;23278;52.110;6.050;2023-11-18T03:05:26;6.90;99.90
37412;DHT22;23278;52.110;6.050;2023-11-18T03:07:52;7.00;99.90
37412;DHT22;23278;52.110;6.050;2023-11-18T03:10:21;7.00;99.90
37412;DHT22;23278;52.110;6.050;2023-11-18T03:12:53;7.00;99.90
37412;DHT22;23278;52.110;6.050;2023-11-18T03:15:21;7.00;99.90
37412;DHT22;23278;52.110;6.050;2023-11-18T03:17:48;7.00;99.90
37412;DHT22;23278;52.110;6.050;2023-11-18T03:20:22;7.00;99.90
37412;DHT22;23278;52.110;6.050;2023-11-18T03:22:49;7.00;99.90
37412;DHT22;23278;52.110;6.050;2023-11-18T03:25:17;7.10;99.90
37412;DHT22;23278;52.110;6.050;2023-11-18T03:27:43;7.10;99.90
37412;DHT22;23278;52.110;6.050;2023-11-18T03:30:12;7.10;99.90
37412;DHT22;23278;52.110;6.050;2023-11-18T03:32:39;7.10;99.90
37412;DHT22;23278;52.110;6.050;2023-11-18T03:35:08;7.20;99.90
37412;DHT22;23278;52.110;6.050;2023-11-18T03:37:43;7.20;99.90
37412;DHT22;23278;52.110;6.050;2023-11-18T03:40:13;7.20;99.90
37412;DHT22;23278;52.110;6.050;2023-11-18T03:42:41;7.20;99.90
37412;DHT22;23278;52.110;6.050;2023-11-18T03:45:08;7.20;99.90
37412;DHT22;23278;52.110;6.050;2023-11-18T03:47:35;7.20;99.90
37412;DHT22;23278;52.110;6.050;2023-11-18T03:50:01;7.20;99.90
37412;DHT22;23278;52.110;6.050;2023-11-18T03:52:27;7.20;99.90
37412;DHT22;23278;52.110;6.050;2023-11-18T03:54:54;7.20;99.90
37412;DHT22;23278;52.110;6.050;2023-11-18T03:57:23;7.20;99.90
37412;DHT22;23278;52.110;6.050;2023-11-18T03:59:49;7.20;99.90
37412;DHT22;23278;52.110;6.050;2023-11-18T04:02:16;7.20;99.90
37412;DHT22;23278;52.110;6.050;2023-11-18T04:04:41;7.20;99.90
37412;DHT22;23278;52.110;6.050;2023-11-18T04:07:07;7.20;99.90
37412;DHT22;23278;52.110;6.050;2023-11-18T04:09:33;7.20;99.90
37412;DHT22;23278;52.110;6.050;2023-11-18T04:11:59;7.20;99.90
37412;DHT22;23278;52.110;6.050;2023-11-18T04:14:25;7.20;99.90
37412;DHT22;23278;52.110;6.050;2023-11-18T04:16:51;7.20;99.90
37412;DHT22;23278;52.110;6.050;2023-11-18T04:19:18;7.30;99.90
37412;DHT22;23278;52.110;6.050;2023-11-18T04:21:43;7.30;99.90
37412;DHT22;23278;52.110;6.050;2023-11-18T04:24:14;7.30;99.90
37412;DHT22;23278;52.110;6.050;2023-11-18T04:26:41;7.30;99.90
37412;DHT22;23278;52.110;6.050;2023-11-18T04:29:06;7.30;99.90
37412;DHT22;23278;52.110;6.050;2023-11-18T04:31:32;7.30;99.90
37412;DHT22;23278;52.110;6.050;2023-11-18T04:34:00;7.40;99.90
37412;DHT22;23278;52.110;6.050;2023-11-18T04:36:25;7.40;99.90
37412;DHT22;23278;52.110;6.050;2023-11-18T04:38:52;7.40;99.90
37412;DHT22;23278;52.110;6.050;2023-11-18T04:41:18;7.40;99.90
37412;DHT22;23278;52.110;6.050;2023-11-18T04:43:44;7.40;99.90
37412;DHT22;23278;52.110;6.050;2023-11-18T04:46:10;7.40;99.90
37412;DHT22;23278;52.110;6.050;2023-11-18T04:48:36;7.40;99.90
37412;DHT22;23278;52.110;6.050;2023-11-18T04:51:02;7.40;99.90
37412;DHT22;23278;52.110;6.050;2023-11-18T04:53:28;7.40;99.90
37412;DHT22;23278;52.110;6.050;2023-11-18T04:55:54;7.50;99.90
37412;DHT22;23278;52.110;6.050;2023-11-18T04:58:21;7.50;99.90
37412;DHT22;23278;52.110;6.050;2023-11-18T05:00:47;7.40;99.90
37412;DHT22;23278;52.110;6.050;2023-11-18T05:03:13;7.40;99.90
37412;DHT22;23278;52.110;6.050;2023-11-18T05:05:39;7.40;99.90
37412;DHT22;23278;52.110;6.050;2023-11-18T05:08:06;7.40;99.90
37412;DHT22;23278;52.110;6.050;2023-11-18T05:10:33;7.40;99.90
37412;DHT22;23278;52.110;6.050;2023-11-18T05:12:59;7.40;99.90
37412;DHT22;23278;52.110;6.050;2023-11-18T05:15:25;7.40;99.90
37412;DHT22;23278;52.110;6.050;2023-11-18T05:17:52;7.30;99.90
37412;DHT22;23278;52.110;6.050;2023-11-18T05:20:19;7.30;99.90
37412;DHT22;23278;52.110;6.050;2023-11-18T05:22:46;7.40;99.90
37412;DHT22;23278;52.110;6.050;2023-11-18T05:25:11;7.30;99.90
37412;DHT22;23278;52.110;6.050;2023-11-18T05:27:38;7.30;99.90
37412;DHT22;23278;52.110;6.050;2023-11-18T05:30:11;7.30;99.90
37412;DHT22;23278;52.110;6.050;2023-11-18T05:32:37;7.30;99.90
37412;DHT22;23278;52.110;6.050;2023-11-18T05:35:04;7.30;99.90
37412;DHT22;23278;52.110;6.050;2023-11-18T05:37:31;7.30;99.90
37412;DHT22;23278;52.110;6.050;2023-11-18T05:40:02;7.30;99.90
37412;DHT22;23278;52.110;6.050;2023-11-18T05:42:36;7.30;99.90
37412;DHT22;23278;52.110;6.050;2023-11-18T05:45:06;7.30;99.90
37412;DHT22;23278;52.110;6.050;2023-11-18T05:47:33;7.30;99.90
37412;DHT22;23278;52.110;6.050;2023-11-18T05:50:02;7.30;99.90
37412;DHT22;23278;52.110;6.050;2023-11-18T05:52:30;7.40;99.90
37412;DHT22;23278;52.110;6.050;2023-11-18T05:54:56;7.30;99.90
37412;DHT22;23278;52.110;6.050;2023-11-18T05:57:22;7.30;99.90
37412;DHT22;23278;52.110;6.050;2023-11-18T05:59:48;7.30;99.90
37412;DHT22;23278;52.110;6.050;2023-11-18T06:02:14;7.40;99.90
37412;DHT22;23278;52.110;6.050;2023-11-18T06:04:44;7.40;99.90
37412;DHT22;23278;52.110;6.050;2023-11-18T06:07:10;7.40;99.90
37412;DHT22;23278;52.110;6.050;2023-11-18T06:09:40;7.40;99.90
37412;DHT22;23278;52.110;6.050;2023-11-18T06:12:08;7.30;99.90
37412;DHT22;23278;52.110;6.050;2023-11-18T06:14:38;7.30;99.90
37412;DHT22;23278;52.110;6.050;2023-11-18T06:17:04;7.30;99.90
37412;DHT22;23278;52.110;6.050;2023-11-18T06:19:33;7.30;99.90
37412;DHT22;23278;52.110;6.050;2023-11-18T06:21:59;7.30;99.90
37412;DHT22;23278;52.110;6.050;2023-11-18T06:24:25;7.30;99.90
37412;DHT22;23278;52.110;6.050;2023-11-18T06:26:51;7.30;99.90
37412;DHT22;23278;52.110;6.050;2023-11-18T06:29:17;7.30;99.90
37412;DHT22;23278;52.110;6.050;2023-11-18T06:31:44;7.30;99.90
37412;DHT22;23278;52.110;6.050;2023-11-18T06:34:10;7.30;99.90
37412;DHT22;23278;52.110;6.050;2023-11-18T06:36:38;7.30;99.90
37412;DHT22;23278;52.110;6.050;2023-11-18T06:39:04;7.30;99.90
37412;DHT22;23278;52.110;6.050;2023-11-18T06:41:32;7.30;99.90
37412;DHT22;23278;52.110;6.050;2023-11-18T06:44:02;7.30;99.90
37412;DHT22;23278;52.110;6.050;2023-11-18T06:46:38;7.30;99.90
37412;DHT22;23278;52.110;6.050;2023-11-18T06:49:05;7.30;99.90
37412;DHT22;23278;52.110;6.050;2023-11-18T06:51:34;7.30;99.90
37412;DHT22;23278;52.110;6.050;2023-11-18T06:54:01;7.20;99.90
37412;DHT22;23278;52.110;6.050;2023-11-18T06:56:45;7.30;99.90
37412;DHT22;23278;52.110;6.050;2023-11-18T06:59:12;7.30;99.90
37412;DHT22;23278;52.110;6.050;2023-11-18T07:01:39;7.20;99.90
37412;DHT22;23278;52.110;6.050;2023-11-18T07:04:06;7.20;99.90
37412;DHT22;23278;52.110;6.050;2023-11-18T07:06:36;7.20;99.90
37412;DHT22;23278;52.110;6.050;2023-11-18T07:09:05;7.20;99.90
37412;DHT22;23278;52.110;6.050;2023-11-18T07:11:40;7.20;99.90
37412;DHT22;23278;52.110;6.050;2023-11-18T07:14:07;7.20;99.90
37412;DHT22;23278;52.110;6.050;2023-11-18T07:16:35;7.20;99.90
37412;DHT22;23278;52.110;6.050;2023-11-18T07:19:01;7.10;99.90
37412;DHT22;23278;52.110;6.050;2023-11-18T07:21:29;7.10;99.90
37412;DHT22;23278;52.110;6.050;2023-11-18T07:23:55;7.10;99.90
37412;DHT22;23278;52.110;6.050;2023-11-18T07:26:22;7.10;99.90
37412;DHT22;23278;52.110;6.050;2023-11-18T07:28:50;7.10;99.90
37412;DHT22;23278;52.110;6.050;2023-11-18T07:31:18;7.10;99.90
37412;DHT22;23278;52.110;6.050;2023-11-18T07:33:45;7.10;99.90
37412;DHT22;23278;52.110;6.050;2023-11-18T07:36:16;7.10;99.90
37412;DHT22;23278;52.110;6.050;2023-11-18T07:38:42;7.10;99.90
37412;DHT22;23278;52.110;6.050;2023-11-18T07:41:08;7.10;99.90
37412;DHT22;23278;52.110;6.050;2023-11-18T07:43:52;7.10;99.90
37412;DHT22;23278;52.110;6.050;2023-11-18T07:46:22;7.10;99.90
37412;DHT22;23278;52.110;6.050;2023-11-18T07:48:52;7.10;99.90
37412;DHT22;23278;52.110;6.050;2023-11-18T07:51:19;7.10;99.90
37412;DHT22;23278;52.110;6.050;2023-11-18T07:53:49;7.10;99.90
37412;DHT22;23278;52.110;6.050;2023-11-18T07:56:15;7.20;99.90
37412;DHT22;23278;52.110;6.050;2023-11-18T07:58:45;7.10;99.90
37412;DHT22;23278;52.110;6.050;2023-11-18T08:01:12;7.20;99.90
37412;DHT22;23278;52.110;6.050;2023-11-18T08:03:38;7.20;99.90
37412;DHT22;23278;52.110;6.050;2023-11-18T08:06:07;7.20;99.90
37412;DHT22;23278;52.110;6.050;2023-11-18T08:08:35;7.20;99.90
37412;DHT22;23278;52.110;6.050;2023-11-18T08:11:04;7.20;99.90
37412;DHT22;23278;52.110;6.050;2023-11-18T08:13:31;7.20;99.90
37412;DHT22;23278;52.110;6.050;2023-11-18T08:15:57;7.20;99.90
37412;DHT22;23278;52.110;6.050;2023-11-18T08:18:26;7.30;99.90
37412;DHT22;23278;52.110;6.050;2023-11-18T08:20:53;7.30;99.90
37412;DHT22;23278;52.110;6.050;2023-11-18T08:23:19;7.30;99.90
37412;DHT22;23278;52.110;6.050;2023-11-18T08:25:45;7.20;99.90
37412;DHT22;23278;52.110;6.050;2023-11-18T08:28:12;7.30;99.90
37412;DHT22;23278;52.110;6.050;2023-11-18T08:30:39;7.30;99.90
37412;DHT22;23278;52.110;6.050;2023-11-18T08:33:05;7.30;99.90
37412;DHT22;23278;52.110;6.050;2023-11-18T08:35:37;7.30;99.90
37412;DHT22;23278;52.110;6.050;2023-11-18T08:38:04;7.30;99.90
37412;DHT22;23278;52.110;6.050;2023-11-18T08:40:33;7.20;99.90
37412;DHT22;23278;52.110;6.050;2023-11-18T08:43:00;7.30;99.90
37412;DHT22;23278;52.110;6.050;2023-11-18T08:45:27;7.30;99.90
37412;DHT22;23278;52.110;6.050;2023-11-18T08:47:56;7.30;99.90
37412;DHT22;23278;52.110;6.050;2023-11-18T08:50:23;7.30;99.90
37412;DHT22;23278;52.110;6.050;2023-11-18T08:52:50;7.30;99.90
37412;DHT22;23278;52.110;6.050;2023-11-18T08:55:28;7.40;99.90
37412;DHT22;23278;52.110;6.050;2023-11-18T08:58:08;7.40;99.90
37412;DHT22;23278;52.110;6.050;2023-11-18T09:00:52;7.50;99.90
37412;DHT22;23278;52.110;6.050;2023-11-18T09:03:25;7.50;99.90
37412;DHT22;23278;52.110;6.050;2023-11-18T09:05:57;7.60;99.90
37412;DHT22;23278;52.110;6.050;2023-11-18T09:11:02;7.60;99.90
37412;DHT22;23278;52.110;6.050;2023-11-18T09:13:28;7.70;99.90
37412;DHT22;23278;52.110;6.050;2023-11-18T09:15:56;7.70;99.90
37412;DHT22;23278;52.110;6.050;2023-11-18T09:18:23;7.80;99.90
37412;DHT22;23278;52.110;6.050;2023-11-18T09:20:51;7.80;99.90
37412;DHT22;23278;52.110;6.050;2023-11-18T09:23:18;7.90;99.90
37412;DHT22;23278;52.110;6.050;2023-11-18T09:25:47;7.90;99.90
37412;DHT22;23278;52.110;6.050;2023-11-18T09:28:14;7.90;99.90
37412;DHT22;23278;52.110;6.050;2023-11-18T09:30:45;8.00;99.90
37412;DHT22;23278;52.110;6.050;2023-11-18T09:33:26;8.00;99.90
37412;DHT22;23278;52.110;6.050;2023-11-18T09:35:59;8.00;99.90
37412;DHT22;23278;52.110;6.050;2023-11-18T09:38:32;8.10;99.90
37412;DHT22;23278;52.110;6.050;2023-11-18T09:41:03;8.10;99.90
37412;DHT22;23278;52.110;6.050;2023-11-18T09:43:35;8.20;99.90
37412;DHT22;23278;52.110;6.050;2023-11-18T09:46:28;8.20;99.90
37412;DHT22;23278;52.110;6.050;2023-11-18T09:51:42;8.30;99.90
37412;DHT22;23278;52.110;6.050;2023-11-18T09:57:04;8.40;99.90
37412;DHT22;23278;52.110;6.050;2023-11-18T09:59:58;8.40;99.90
37412;DHT22;23278;52.110;6.050;2023-11-18T10:02:39;8.40;99.90
37412;DHT22;23278;52.110;6.050;2023-11-18T10:05:07;8.50;99.90
37412;DHT22;23278;52.110;6.050;2023-11-18T10:07:48;8.50;99.90
37412;DHT22;23278;52.110;6.050;2023-11-18T10:10:15;8.50;99.90
37412;DHT22;23278;52.110;6.050;2023-11-18T10:12:45;8.60;99.90
37412;DHT22;23278;52.110;6.050;2023-11-18T10:15:14;8.60;99.90
37412;DHT22;23278;52.110;6.050;2023-11-18T10:17:43;8.60;99.90
37412;DHT22;23278;52.110;6.050;2023-11-18T10:20:46;8.60;99.90
37412;DHT22;23278;52.110;6.050;2023-11-18T10:23:16;8.60;99.90
37412;DHT22;23278;52.110;6.050;2023-11-18T10:25:49;8.60;99.90
37412;DHT22;23278;52.110;6.050;2023-11-18T10:28:25;8.70;99.90
37412;DHT22;23278;52.110;6.050;2023-11-18T10:31:00;8.70;99.90
37412;DHT22;23278;52.110;6.050;2023-11-18T10:33:35;8.70;99.90
37412;DHT22;23278;52.110;6.050;2023-11-18T10:36:04;8.80;99.90
37412;DHT22;23278;52.110;6.050;2023-11-18T10:38:39;8.80;99.90
37412;DHT22;23278;52.110;6.050;2023-11-18T10:41:15;8.80;99.90
37412;DHT22;23278;52.110;6.050;2023-11-18T10:43:47;8.80;99.90
37412;DHT22;23278;52.110;6.050;2023-11-18T10:46:16;8.90;99.90
37412;DHT22;23278;52.110;6.050;2023-11-18T10:48:44;8.90;99.90
37412;DHT22;23278;52.110;6.050;2023-11-18T10:51:11;8.90;99.90
37412;DHT22;23278;52.110;6.050;2023-11-18T10:53:47;8.80;99.90
37412;DHT22;23278;52.110;6.050;2023-11-18T10:56:24;8.80;99.90
37412;DHT22;23278;52.110;6.050;2023-11-18T11:01:36;8.70;99.90
37412;DHT22;23278;52.110;6.050;2023-11-18T11:04:08;8.70;99.90
37412;DHT22;23278;52.110;6.050;2023-11-18T11:06:41;8.70;99.90
37412;DHT22;23278;52.110;6.050;2023-11-18T11:09:08;8.80;99.90
37412;DHT22;23278;52.110;6.050;2023-11-18T11:11:52;8.70;99.90
37412;DHT22;23278;52.110;6.050;2023-11-18T11:14:21;8.70;99.90
37412;DHT22;23278;52.110;6.050;2023-11-18T11:16:52;8.80;99.90
37412;DHT22;23278;52.110;6.050;2023-11-18T11:19:33;8.80;99.90
37412;DHT22;23278;52.110;6.050;2023-11-18T11:22:10;8.80;99.90
37412;DHT22;23278;52.110;6.050;2023-11-18T11:25:19;8.80;99.90
37412;DHT22;23278;52.110;6.050;2023-11-18T11:27:56;8.70;99.90
37412;DHT22;23278;52.110;6.050;2023-11-18T11:30:29;8.70;99.90
37412;DHT22;23278;52.110;6.050;2023-11-18T11:33:14;8.70;99.90
37412;DHT22;23278;52.110;6.050;2023-11-18T11:35:48;8.70;99.90
37412;DHT22;23278;52.110;6.050;2023-11-18T11:38:15;8.70;99.90
37412;DHT22;23278;52.110;6.050;2023-11-18T11:40:42;8.70;99.90
37412;DHT22;23278;52.110;6.050;2023-11-18T11:43:11;8.70;99.90
37412;DHT22;23278;52.110;6.050;2023-11-18T11:45:37;8.60;99.90
37412;DHT22;23278;52.110;6.050;2023-11-18T11:48:06;8.60;99.90
37412;DHT22;23278;52.110;6.050;2023-11-18T11:53:43;8.60;99.90
37412;DHT22;23278;52.110;6.050;2023-11-18T11:56:12;8.60;99.90
37412;DHT22;23278;52.110;6.050;2023-11-18T11:58:47;8.50;99.90
37412;DHT22;23278;52.110;6.050;2023-11-18T12:01:21;8.50;99.90
37412;DHT22;23278;52.110;6.050;2023-11-18T12:03:52;8.50;99.90
37412;DHT22;23278;52.110;6.050;2023-11-18T12:06:24;8.50;99.90
37412;DHT22;23278;52.110;6.050;2023-11-18T12:08:53;8.50;99.90
37412;DHT22;23278;52.110;6.050;2023-11-18T12:11:20;8.50;99.90
37412;DHT22;23278;52.110;6.050;2023-11-18T12:14:17;8.40;99.90
37412;DHT22;23278;52.110;6.050;2023-11-18T12:17:05;8.40;99.90
37412;DHT22;23278;52.110;6.050;2023-11-18T12:19:47;8.30;99.90
37412;DHT22;23278;52.110;6.050;2023-11-18T12:22:20;8.30;99.90
37412;DHT22;23278;52.110;6.050;2023-11-18T12:33:05;8.40;99.90
37412;DHT22;23278;52.110;6.050;2023-11-18T12:41:39;8.40;99.90
37412;DHT22;23278;52.110;6.050;2023-11-18T12:44:30;8.40;99.90
37412;DHT22;23278;52.110;6.050;2023-11-18T12:47:02;8.40;99.90
37412;DHT22;23278;52.110;6.050;2023-11-18T12:49:38;8.40;99.90
37412;DHT22;23278;52.110;6.050;2023-11-18T12:52:07;8.40;99.90
37412;DHT22;23278;52.110;6.050;2023-11-18T12:54:35;8.40;99.90
37412;DHT22;23278;52.110;6.050;2023-11-18T12:57:05;8.40;99.90
37412;DHT22;23278;52.110;6.050;2023-11-18T12:59:34;8.50;99.90
37412;DHT22;23278;52.110;6.050;2023-11-18T13:02:02;8.50;99.90
37412;DHT22;23278;52.110;6.050;2023-11-18T13:04:33;8.50;99.90
37412;DHT22;23278;52.110;6.050;2023-11-18T13:07:06;8.60;99.90
37412;DHT22;23278;52.110;6.050;2023-11-18T13:09:37;8.60;99.90
37412;DHT22;23278;52.110;6.050;2023-11-18T13:12:05;8.60;99.90
37412;DHT22;23278;52.110;6.050;2023-11-18T13:14:32;8.60;99.90
37412;DHT22;23278;52.110;6.050;2023-11-18T13:17:09;8.50;99.90
37412;DHT22;23278;52.110;6.050;2023-11-18T13:19:37;8.60;99.90
37412;DHT22;23278;52.110;6.050;2023-11-18T13:22:04;8.50;99.90
37412;DHT22;23278;52.110;6.050;2023-11-18T13:24:37;8.50;99.90
37412;DHT22;23278;52.110;6.050;2023-11-18T13:27:08;8.60;99.90
37412;DHT22;23278;52.110;6.050;2023-11-18T13:29:38;8.60;99.90
37412;DHT22;23278;52.110;6.050;2023-11-18T13:32:10;8.50;99.90
37412;DHT22;23278;52.110;6.050;2023-11-18T13:34:37;8.50;99.90
37412;DHT22;23278;52.110;6.050;2023-11-18T13:37:08;8.40;99.90
37412;DHT22;23278;52.110;6.050;2023-11-18T13:39:34;8.50;99.90
37412;DHT22;23278;52.110;6.050;2023-11-18T13:42:29;8.50;99.90
37412;DHT22;23278;52.110;6.050;2023-11-18T13:45:00;8.40;99.90
37412;DHT22;23278;52.110;6.050;2023-11-18T13:47:27;8.40;99.90
37412;DHT22;23278;52.110;6.050;2023-11-18T13:49:58;8.40;99.90
37412;DHT22;23278;52.110;6.050;2023-11-18T13:52:25;8.40;99.90
37412;DHT22;23278;52.110;6.050;2023-11-18T13:54:51;8.40;99.90
37412;DHT22;23278;52.110;6.050;2023-11-18T13:57:23;8.40;99.90
37412;DHT22;23278;52.110;6.050;2023-11-18T13:59:50;8.50;99.90
37412;DHT22;23278;52.110;6.050;2023-11-18T14:02:16;8.50;99.90
37412;DHT22;23278;52.110;6.050;2023-11-18T14:04:43;8.50;99.90
37412;DHT22;23278;52.110;6.050;2023-11-18T14:07:13;8.40;99.90
37412;DHT22;23278;52.110;6.050;2023-11-18T14:09:43;8.40;99.90
37412;DHT22;23278;52.110;6.050;2023-11-18T14:12:14;8.50;99.90
37412;DHT22;23278;52.110;6.050;2023-11-18T14:14:40;8.40;99.90
37412;DHT22;23278;52.110;6.050;2023-11-18T14:17:08;8.50;99.90
37412;DHT22;23278;52.110;6.050;2023-11-18T14:19:36;8.50;99.90
37412;DHT22;23278;52.110;6.050;2023-11-18T14:22:03;8.40;99.90
37412;DHT22;23278;52.110;6.050;2023-11-18T14:24:35;8.50;99.90
37412;DHT22;23278;52.110;6.050;2023-11-18T14:27:01;8.40;99.90
37412;DHT22;23278;52.110;6.050;2023-11-18T14:29:27;8.50;99.90
37412;DHT22;23278;52.110;6.050;2023-11-18T14:31:53;8.40;99.90
37412;DHT22;23278;52.110;6.050;2023-11-18T14:34:20;8.40;99.90
37412;DHT22;23278;52.110;6.050;2023-11-18T14:36:45;8.50;99.90
37412;DHT22;23278;52.110;6.050;2023-11-18T14:39:11;8.50;99.90
37412;DHT22;23278;52.110;6.050;2023-11-18T14:41:40;8.50;99.90
37412;DHT22;23278;52.110;6.050;2023-11-18T14:44:06;8.50;99.90
37412;DHT22;23278;52.110;6.050;2023-11-18T14:46:35;8.50;99.90
37412;DHT22;23278;52.110;6.050;2023-11-18T14:49:04;8.40;99.90
37412;DHT22;23278;52.110;6.050;2023-11-18T14:51:33;8.40;99.90
37412;DHT22;23278;52.110;6.050;2023-11-18T14:53:59;8.40;99.90
37412;DHT22;23278;52.110;6.050;2023-11-18T14:56:25;8.40;99.90
37412;DHT22;23278;52.110;6.050;2023-11-18T14:58:50;8.40;99.90
37412;DHT22;23278;52.110;6.050;2023-11-18T15:01:17;8.40;99.90
37412;DHT22;23278;52.110;6.050;2023-11-18T15:03:44;8.40;99.90
37412;DHT22;23278;52.110;6.050;2023-11-18T15:06:11;8.40;99.90
37412;DHT22;23278;52.110;6.050;2023-11-18T15:08:38;8.40;99.90
37412;DHT22;23278;52.110;6.050;2023-11-18T15:11:06;8.40;99.90
37412;DHT22;23278;52.110;6.050;2023-11-18T15:13:35;8.40;99.90
37412;DHT22;23278;52.110;6.050;2023-11-18T15:16:03;8.40;99.90
37412;DHT22;23278;52.110;6.050;2023-11-18T15:18:29;8.40;99.90
37412;DHT22;23278;52.110;6.050;2023-11-18T15:20:55;8.40;99.90
37412;DHT22;23278;52.110;6.050;2023-11-18T15:23:22;8.40;99.90
37412;DHT22;23278;52.110;6.050;2023-11-18T15:25:48;8.40;99.90
37412;DHT22;23278;52.110;6.050;2023-11-18T15:28:17;8.40;99.90
37412;DHT22;23278;52.110;6.050;2023-11-18T15:30:44;8.40;99.90
37412;DHT22;23278;52.110;6.050;2023-11-18T15:33:10;8.40;99.90
37412;DHT22;23278;52.110;6.050;2023-11-18T15:35:39;8.30;99.90
37412;DHT22;23278;52.110;6.050;2023-11-18T15:38:07;8.40;99.90
37412;DHT22;23278;52.110;6.050;2023-11-18T15:40:35;8.40;99.90
37412;DHT22;23278;52.110;6.050;2023-11-18T15:43:05;8.30;99.90
37412;DHT22;23278;52.110;6.050;2023-11-18T15:45:37;8.30;99.90
37412;DHT22;23278;52.110;6.050;2023-11-18T15:48:04;8.30;99.90
37412;DHT22;23278;52.110;6.050;2023-11-18T15:50:36;8.30;99.90
37412;DHT22;23278;52.110;6.050;2023-11-18T15:53:03;8.30;99.90
37412;DHT22;23278;52.110;6.050;2023-11-18T15:55:32;8.30;99.90
37412;DHT22;23278;52.110;6.050;2023-11-18T15:57:58;8.40;99.90
37412;DHT22;23278;52.110;6.050;2023-11-18T16:00:27;8.40;99.90
37412;DHT22;23278;52.110;6.050;2023-11-18T16:02:56;8.40;99.90
37412;DHT22;23278;52.110;6.050;2023-11-18T16:05:25;8.30;99.90
37412;DHT22;23278;52.110;6.050;2023-11-18T16:07:52;8.40;99.90
37412;DHT22;23278;52.110;6.050;2023-11-18T16:10:26;8.40;99.90
37412;DHT22;23278;52.110;6.050;2023-11-18T16:12:55;8.40;99.90
37412;DHT22;23278;52.110;6.050;2023-11-18T16:15:22;8.40;99.90
37412;DHT22;23278;52.110;6.050;2023-11-18T16:17:52;8.40;99.90
37412;DHT22;23278;52.110;6.050;2023-11-18T16:20:19;8.40;99.90
37412;DHT22;23278;52.110;6.050;2023-11-18T16:22:47;8.40;99.90
37412;DHT22;23278;52.110;6.050;2023-11-18T16:25:15;8.40;99.90